Flight Track Log - Related Links

Times and Time Zones

All times are in EDT time to prevent confusion due to time zone crossing. See the ASQ4577 flight status page for this flight to view local times or setup timezone preferences in your user account.

Time Position Orientation Groundspeed Altitude Reporting Facility
EDT Latitude Longitude Course Direction KTS MPH feet Rate Location/Type
Wed 14:39:55 29.9767 -95.3008 69° East 177 204 800  Level Houston Center
Wed 14:40:13 29.9817 -95.2856 69° East 158 182 1,500 1,652 Climbing Houston Center
Wed 14:41:04 30.0314 -95.2797 North 250 288 2,700 1,327 Climbing Houston Center
Wed 14:42:06 30.1069 -95.2875 355° North 267 307 4,000 1,403 Climbing Houston Center
Wed 14:43:08 30.1861 -95.2942 356° North 279 321 5,600 1,968 Climbing Houston Center
Wed 14:44:11 30.2678 -95.2986 357° North 289 333 8,100 2,352 Climbing Houston Center
Wed 14:45:13 30.3519 -95.3028 358° North 299 344 10,500 1,790 Climbing Houston Center
Wed 14:46:15 30.4586 -95.3106 356° North 311 358 11,800 1,403 Climbing Houston Center
Wed 14:47:17 30.5614 -95.3058 North 359 413 13,400 1,742 Climbing Houston Center
Wed 14:48:19 30.6628 -95.3008 North 366 421 15,400 1,887 Climbing Houston Center
Wed 14:49:21 30.7631 -95.2936 North 361 415 17,300 1,839 Climbing Houston Center
Wed 14:50:23 30.8603 -95.2869 North 352 405 19,200 1,742 Climbing Houston Center
Wed 14:51:25 30.9569 -95.2814 North 347 399 20,900 1,355 Climbing Houston Center
Wed 14:52:27 31.0586 -95.2733 North 359 413 22,000 532 Climbing Houston Center
Wed 14:53:29 31.1897 -95.2656 North 411 473 22,000  Level Houston Center
Wed 14:54:31 31.3217 -95.2558 North 444 511 22,000  Level Houston Center
Wed 14:55:34 31.4275 -95.3100 336° Northwest 425 489 22,000  Level Fort Center
Wed 14:56:34 31.5083 -95.4006 316° Northwest 395 455 22,000  Level Fort Center
Wed 14:57:34 31.5914 -95.4989 315° West 407 468 22,000  Level Fort Center
Wed 14:58:34 31.6742 -95.5972 315° West 422 486 22,000  Level Fort Center
Wed 14:59:34 31.7614 -95.7078 313° West 422 486 22,000  Level Fort Center
Wed 15:00:34 31.8442 -95.8092 314° West 422 486 22,000 -50 Level Fort Center
Wed 15:01:34 31.9161 -95.8933 315° West 397 457 21,900  Descending Fort Center
Wed 15:02:34 32.0067 -95.9533 331° Northwest 377 434 22,000 50 Climbing Fort Center
Wed 15:03:34 32.0867 -96.0306 321° Northwest 377 434 22,000  Level Fort Center
Wed 15:04:34 32.1400 -96.1303 302° West 355 409 22,000 -400 Level Fort Center
Wed 15:05:34 32.1931 -96.2253 303° West 348 400 21,200 -1,550 Descending Fort Center
Wed 15:06:34 32.2564 -96.3031 314° West 343 395 18,900 -2,136 Descending Fort Center
Wed 15:07:46 32.3303 -96.3906 315° West 338 389 16,500 -2,182 Descending Fort Center
Wed 15:08:46 32.4019 -96.4758 315° West 338 389 14,100 -1,950 Descending Fort Center
Wed 15:09:46 32.4589 -96.5442 315° West 328 377 12,600 -1,350 Descending Fort Center
Wed 15:10:46 32.5239 -96.6200 315° West 311 358 11,400 -727 Descending Fort Center
Wed 15:11:58 32.5786 -96.6836 316° Northwest 305 351 11,000 -182 Descending Fort Center
Wed 15:12:58 32.6336 -96.7844 303° West 281 323 11,000  Level Fort Center
Wed 15:13:40 32.6500 -96.8500 287° West 296 341 11,000  Level Dallas TRACON
Wed 15:14:40 32.6833 -96.9333 295° West 282 325 11,000  Level Dallas TRACON
Wed 15:15:46 32.7333 -97.0167 306° West 296 341 11,000  Level Dallas TRACON
Wed 15:16:46 32.8000 -97.0667 328° Northwest 275 316 11,000 -850 Level Dallas TRACON
Wed 15:17:46 32.8500 -97.1167 320° Northwest 258 297 9,300 -1,700 Descending Dallas TRACON
Wed 15:18:46 32.9333 -97.1333 350° North 258 297 7,600 -1,900 Descending Dallas TRACON
Wed 15:19:46 33.0000 -97.1500 348° North 256 295 5,500 -1,636 Descending Dallas TRACON
Wed 15:20:58 33.0731 -97.1556 356° North 253 291 4,000 -839 Descending Fort Center
Wed 15:22:52 33.1833 -97.0833 29° Northeast 218 251 2,900 -357 Descending Dallas TRACON
Wed 15:23:46 33.1500 -97.0500 140° Southeast 208 239 3,000 53 Climbing Dallas TRACON
Wed 15:24:46 33.1000 -97.0500 180° South 193 222 3,000  Level Dallas TRACON

Login

Don't have an account? Register now (free) for customized features, flight alerts, and more!